createdAt,value
2018-06-28T00:00:26.637Z,2.50
2018-06-28T00:02:54.771Z,3.10
2018-06-28T00:05:22.868Z,2.73
2018-06-28T00:07:51.015Z,2.50
2018-06-28T00:10:19.125Z,2.97
2018-06-28T00:12:47.214Z,2.90
2018-06-28T00:15:15.409Z,2.80
2018-06-28T00:17:43.538Z,3.20
2018-06-28T00:20:11.761Z,2.93
2018-06-28T00:22:39.866Z,3.03
2018-06-28T00:25:07.980Z,3.00
2018-06-28T00:27:36.187Z,3.30
2018-06-28T00:30:04.714Z,3.40
2018-06-28T00:32:32.858Z,2.87
2018-06-28T00:35:00.945Z,3.00
2018-06-28T00:37:29.126Z,2.90
2018-06-28T00:39:57.240Z,2.90
2018-06-28T00:42:25.342Z,2.77
2018-06-28T00:44:53.455Z,3.00
2018-06-28T00:47:21.584Z,3.13
2018-06-28T00:49:49.703Z,3.13
2018-06-28T00:52:17.838Z,2.97
2018-06-28T00:54:45.948Z,2.90
2018-06-28T00:57:14.076Z,3.60
2018-06-28T00:59:42.210Z,3.40
2018-06-28T01:02:10.314Z,3.80
2018-06-28T01:04:38.445Z,3.57
2018-06-28T01:07:06.726Z,3.70
2018-06-28T01:09:34.862Z,3.60
2018-06-28T01:12:02.962Z,3.40
2018-06-28T01:14:34.925Z,3.20
2018-06-28T01:17:03.057Z,3.33
2018-06-28T01:19:31.166Z,3.70
2018-06-28T01:21:59.293Z,3.70
2018-06-28T01:24:27.391Z,3.93
2018-06-28T01:26:55.550Z,4.00
2018-06-28T01:29:23.664Z,4.00
2018-06-28T01:31:51.750Z,3.80
2018-06-28T01:34:19.906Z,3.70
2018-06-28T01:36:48.023Z,4.20
2018-06-28T01:39:16.159Z,4.00
2018-06-28T01:41:55.658Z,3.90
2018-06-28T01:44:23.810Z,4.03
2018-06-28T01:46:51.954Z,3.83
2018-06-28T01:49:20.048Z,3.93
2018-06-28T01:51:48.146Z,3.70
2018-06-28T01:54:16.272Z,4.03
2018-06-28T01:56:44.436Z,4.27
2018-06-28T01:59:12.538Z,3.87
2018-06-28T02:01:40.674Z,4.20
2018-06-28T02:04:08.798Z,3.80
2018-06-28T02:06:36.930Z,4.80
2018-06-28T02:09:07.593Z,4.03
2018-06-28T02:11:35.722Z,4.30
2018-06-28T02:14:03.912Z,4.10
2018-06-28T02:16:32.003Z,4.20
2018-06-28T02:19:00.118Z,4.30
2018-06-28T02:21:28.243Z,4.30
2018-06-28T02:23:56.351Z,4.37
2018-06-28T02:26:24.467Z,4.27
2018-06-28T02:28:52.575Z,4.43
2018-06-28T02:31:20.690Z,4.70
2018-06-28T02:33:48.810Z,4.20
2018-06-28T02:36:16.979Z,4.20
2018-06-28T02:38:45.100Z,4.47
2018-06-28T02:41:13.230Z,4.10
2018-06-28T02:43:41.329Z,4.47
2018-06-28T02:46:09.456Z,4.40
2018-06-28T02:48:37.555Z,4.40
2018-06-28T02:51:05.698Z,4.40
2018-06-28T02:53:33.793Z,4.53
2018-06-28T02:56:01.923Z,4.33
2018-06-28T02:58:30.054Z,4.63
2018-06-28T03:00:58.177Z,4.30
2018-06-28T03:03:26.299Z,4.60
2018-06-28T03:05:54.450Z,4.10
2018-06-28T03:08:22.554Z,4.20
2018-06-28T03:10:50.669Z,3.80
2018-06-28T03:13:18.771Z,4.20
2018-06-28T03:15:46.878Z,4.30
2018-06-28T03:18:15.002Z,4.57
2018-06-28T03:20:43.088Z,4.50
2018-06-28T03:23:11.195Z,4.23
2018-06-28T03:25:39.326Z,4.70
2018-06-28T03:28:07.477Z,4.87
2018-06-28T03:30:35.608Z,4.60
2018-06-28T03:33:03.723Z,4.47
2018-06-28T03:35:31.833Z,5.27
2018-06-28T03:38:00.108Z,4.60
2018-06-28T03:40:28.090Z,4.57
2018-06-28T03:42:56.203Z,4.43
2018-06-28T03:45:24.310Z,4.53
2018-06-28T03:47:52.426Z,4.73
2018-06-28T03:50:20.514Z,4.67
2018-06-28T03:52:48.713Z,5.00
2018-06-28T03:55:16.811Z,4.90
2018-06-28T03:57:44.919Z,5.33
2018-06-28T04:00:13.050Z,5.40
2018-06-28T04:02:41.178Z,4.80
2018-06-28T04:05:09.347Z,4.97
2018-06-28T04:07:37.468Z,5.43
2018-06-28T04:10:05.644Z,4.90
2018-06-28T04:12:33.752Z,4.87
2018-06-28T04:15:01.874Z,5.40
2018-06-28T04:17:29.990Z,5.13
2018-06-28T04:19:58.135Z,4.80
2018-06-28T04:22:30.594Z,4.97
2018-06-28T04:25:02.149Z,5.07
2018-06-28T04:27:30.420Z,5.30
2018-06-28T04:29:59.074Z,5.20
2018-06-28T04:32:27.206Z,4.70
2018-06-28T04:34:55.383Z,5.00
2018-06-28T04:37:23.659Z,5.60
2018-06-28T04:39:51.769Z,5.20
2018-06-28T04:42:19.875Z,5.33
2018-06-28T04:44:47.996Z,5.53
2018-06-28T04:47:16.105Z,6.00
2018-06-28T04:49:44.236Z,5.53
2018-06-28T04:52:12.318Z,5.17
2018-06-28T04:54:40.436Z,5.97
2018-06-28T04:57:08.625Z,5.43
2018-06-28T04:59:36.722Z,5.33
2018-06-28T05:02:05.023Z,5.50
2018-06-28T05:04:33.139Z,5.27
2018-06-28T05:07:01.255Z,5.63
2018-06-28T05:09:29.359Z,4.93
2018-06-28T05:11:57.493Z,5.67
2018-06-28T05:14:25.597Z,6.00
2018-06-28T05:16:53.721Z,5.40
2018-06-28T05:19:21.851Z,5.17
2018-06-28T05:21:49.972Z,5.23
2018-06-28T05:26:52.646Z,5.80
2018-06-28T05:29:20.737Z,5.67
2018-06-28T05:31:48.874Z,5.90
2018-06-28T05:34:16.995Z,5.63
2018-06-28T05:36:45.122Z,5.43
2018-06-28T05:39:13.357Z,5.67
2018-06-28T05:41:41.462Z,5.73
2018-06-28T05:44:09.590Z,5.33
2018-06-28T05:46:37.913Z,6.27
2018-06-28T05:49:06.017Z,5.97
2018-06-28T05:51:34.135Z,4.93
2018-06-28T05:54:02.278Z,5.70
2018-06-28T05:56:30.387Z,5.33
2018-06-28T05:58:58.518Z,5.50
2018-06-28T06:01:26.682Z,6.20
2018-06-28T06:03:54.796Z,5.37
2018-06-28T06:06:22.898Z,5.60
2018-06-28T06:08:51.047Z,5.80
2018-06-28T06:11:19.157Z,5.67
2018-06-28T06:13:55.190Z,5.50
2018-06-28T06:16:24.020Z,5.60
2018-06-28T06:18:52.161Z,5.70
2018-06-28T06:21:20.277Z,5.17
2018-06-28T06:23:48.395Z,5.93
2018-06-28T06:26:16.747Z,5.27
2018-06-28T06:28:44.851Z,5.50
2018-06-28T06:31:12.941Z,5.60
2018-06-28T06:33:41.193Z,4.97
2018-06-28T06:36:09.313Z,5.53
2018-06-28T06:38:37.451Z,5.13
2018-06-28T06:41:06.291Z,4.90
2018-06-28T06:43:35.088Z,5.10
2018-06-28T06:46:03.304Z,4.77
2018-06-28T06:48:31.710Z,4.57
2018-06-28T06:50:59.867Z,5.03
2018-06-28T06:53:28.039Z,4.63
2018-06-28T06:55:56.384Z,4.90
2018-06-28T06:58:24.498Z,4.80
2018-06-28T07:00:52.619Z,4.40
2018-06-28T07:03:20.715Z,4.63
2018-06-28T07:05:48.842Z,4.20
2018-06-28T07:08:16.955Z,4.53
2018-06-28T07:10:45.203Z,4.10
2018-06-28T07:13:13.306Z,4.33
2018-06-28T07:15:41.437Z,4.10
2018-06-28T07:18:16.131Z,4.70
2018-06-28T07:20:44.243Z,4.73
2018-06-28T07:23:12.342Z,4.80
2018-06-28T07:25:40.536Z,4.60
2018-06-28T07:28:08.634Z,4.50
2018-06-28T07:30:36.832Z,4.33
2018-06-28T07:33:04.970Z,4.90
2018-06-28T07:35:33.064Z,4.77
2018-06-28T07:38:01.145Z,4.27
2018-06-28T07:40:29.253Z,4.37
2018-06-28T07:42:57.502Z,4.50
2018-06-28T07:45:25.631Z,4.60
2018-06-28T07:47:53.742Z,4.50
2018-06-28T07:50:21.862Z,4.60
2018-06-28T07:52:49.983Z,4.00
2018-06-28T07:55:18.171Z,4.10
2018-06-28T07:57:46.242Z,4.50
2018-06-28T08:00:14.378Z,4.13
2018-06-28T08:02:42.553Z,3.80
2018-06-28T08:05:10.615Z,4.00
2018-06-28T08:07:38.804Z,3.87
2018-06-28T08:10:07.018Z,4.08
2018-06-28T08:12:35.140Z,4.40
2018-06-28T08:15:03.391Z,3.80
2018-06-28T08:17:31.551Z,4.10
2018-06-28T08:19:59.682Z,3.80
2018-06-28T08:22:27.839Z,4.10
2018-06-28T08:24:55.959Z,4.17
2018-06-28T08:27:24.154Z,3.80
2018-06-28T08:29:52.347Z,4.10
2018-06-28T08:32:20.473Z,3.93
2018-06-28T08:34:48.566Z,3.47
2018-06-28T08:37:16.694Z,4.40
2018-06-28T08:39:44.825Z,4.30
2018-06-28T08:42:12.955Z,4.20
2018-06-28T08:44:41.214Z,4.00
2018-06-28T08:47:09.318Z,4.43
2018-06-28T08:49:37.422Z,3.93
2018-06-28T08:52:05.541Z,4.30
2018-06-28T08:54:33.859Z,4.17
2018-06-28T08:57:01.959Z,4.20
2018-06-28T08:59:30.067Z,3.97
2018-06-28T09:01:58.166Z,4.13
2018-06-28T09:04:26.263Z,4.03
2018-06-28T09:06:54.609Z,3.80
2018-06-28T09:09:22.739Z,3.80
2018-06-28T09:11:50.841Z,4.10
2018-06-28T09:14:18.984Z,4.40
2018-06-28T09:16:47.123Z,3.97
2018-06-28T09:19:15.224Z,4.10
2018-06-28T09:21:43.340Z,3.90
2018-06-28T09:24:11.458Z,3.77
2018-06-28T09:26:39.632Z,3.40
2018-06-28T09:29:07.745Z,3.60
2018-06-28T09:31:35.988Z,3.43
2018-06-28T09:34:04.094Z,3.67
2018-06-28T09:36:32.771Z,3.73
2018-06-28T09:39:00.921Z,3.90
2018-06-28T09:41:29.061Z,3.60
2018-06-28T09:43:57.183Z,3.80
2018-06-28T09:46:25.315Z,4.00
2018-06-28T09:48:53.451Z,4.07
2018-06-28T09:51:21.582Z,4.33
2018-06-28T09:53:49.715Z,3.80
2018-06-28T09:56:17.858Z,3.87
2018-06-28T09:58:45.971Z,3.17
2018-06-28T10:01:14.106Z,3.98
2018-06-28T10:03:42.223Z,4.12
2018-06-28T10:06:10.363Z,4.10
2018-06-28T10:08:38.730Z,3.90
2018-06-28T10:11:06.886Z,4.08
2018-06-28T10:13:35.081Z,3.67
2018-06-28T10:16:03.273Z,4.12
2018-06-28T10:18:31.439Z,3.67
2018-06-28T10:20:59.560Z,3.70
2018-06-28T10:23:27.654Z,3.75
2018-06-28T10:25:55.767Z,3.60
2018-06-28T10:28:23.944Z,3.98
2018-06-28T10:30:52.065Z,4.10
2018-06-28T10:33:20.170Z,4.40
2018-06-28T10:35:48.292Z,4.00
2018-06-28T10:38:16.454Z,4.43
2018-06-28T10:40:44.567Z,4.30
2018-06-28T10:43:12.685Z,4.67
2018-06-28T10:45:40.826Z,4.40
2018-06-28T10:48:08.988Z,4.53
2018-06-28T10:50:37.110Z,4.50
2018-06-28T10:53:05.254Z,5.17
2018-06-28T10:55:33.362Z,4.70
2018-06-28T10:58:01.466Z,4.70
2018-06-28T11:00:29.691Z,4.53
2018-06-28T11:02:57.715Z,4.87
2018-06-28T11:05:25.829Z,4.47
2018-06-28T11:07:53.932Z,5.17
2018-06-28T11:10:22.066Z,4.70
2018-06-28T11:12:50.177Z,4.70
2018-06-28T11:15:18.402Z,4.83
2018-06-28T11:17:46.535Z,4.30
2018-06-28T11:20:21.247Z,4.53
2018-06-28T11:22:49.370Z,4.87
2018-06-28T11:25:17.473Z,4.80
2018-06-28T11:27:45.580Z,4.83
2018-06-28T11:30:13.685Z,5.30
2018-06-28T11:32:41.790Z,4.73
2018-06-28T11:35:09.981Z,4.83
2018-06-28T11:37:38.103Z,5.13
2018-06-28T11:40:06.265Z,5.50
2018-06-28T11:42:34.385Z,5.50
2018-06-28T11:45:02.576Z,5.27
2018-06-28T11:47:30.668Z,5.17
2018-06-28T11:49:58.804Z,5.10
2018-06-28T11:52:26.938Z,4.77
2018-06-28T11:54:55.105Z,5.50
2018-06-28T11:57:23.286Z,4.73
2018-06-28T11:59:51.411Z,5.20
2018-06-28T12:02:19.510Z,5.63
2018-06-28T12:04:47.670Z,4.70
2018-06-28T12:07:15.787Z,5.13
2018-06-28T12:09:43.912Z,4.57
2018-06-28T12:12:12.022Z,4.60
2018-06-28T12:14:40.163Z,4.90
2018-06-28T12:17:09.147Z,5.47
2018-06-28T12:19:37.287Z,4.70
2018-06-28T12:22:05.538Z,5.23
2018-06-28T12:24:33.679Z,5.27
2018-06-28T12:27:01.804Z,5.13
2018-06-28T12:29:29.918Z,5.20
2018-06-28T12:31:58.031Z,4.90
2018-06-28T12:34:26.166Z,5.70
2018-06-28T12:36:54.274Z,5.43
2018-06-28T12:39:22.423Z,5.30
2018-06-28T12:41:50.566Z,5.37
2018-06-28T12:44:18.706Z,5.47
2018-06-28T12:47:59.493Z,5.53
2018-06-28T12:50:27.601Z,5.10
2018-06-28T12:53:05.053Z,4.80
2018-06-28T12:56:37.790Z,5.87
2018-06-28T12:59:07.221Z,4.90
2018-06-28T13:01:35.410Z,5.87
2018-06-28T13:04:03.594Z,5.60
2018-06-28T13:06:31.708Z,5.53
2018-06-28T13:09:00.401Z,4.67
2018-06-28T13:11:28.747Z,5.00
2018-06-28T13:13:56.869Z,4.80
2018-06-28T13:16:26.191Z,4.80
2018-06-28T13:18:54.327Z,5.23
2018-06-28T13:21:22.474Z,4.97
2018-06-28T13:23:50.605Z,4.90
2018-06-28T13:26:19.147Z,4.10
2018-06-28T13:28:47.286Z,5.03
2018-06-28T13:31:15.599Z,4.93
2018-06-28T13:33:43.835Z,4.50
2018-06-28T13:36:11.924Z,5.33
2018-06-28T13:38:40.072Z,4.90
2018-06-28T13:41:08.429Z,4.23
2018-06-28T13:43:36.426Z,4.50
2018-06-28T13:46:04.649Z,4.73
2018-06-28T13:48:32.765Z,4.87
2018-06-28T13:51:01.036Z,4.70
2018-06-28T13:53:29.167Z,4.63
2018-06-28T13:55:57.275Z,4.70
2018-06-28T13:58:25.424Z,5.10
2018-06-28T14:00:53.510Z,4.43
2018-06-28T14:03:21.852Z,5.30
2018-06-28T14:05:49.764Z,5.37
2018-06-28T14:08:17.870Z,5.70
2018-06-28T14:10:45.993Z,6.70
2018-06-28T14:13:14.119Z,6.23
2018-06-28T14:15:42.335Z,6.03
2018-06-28T14:18:10.479Z,8.17
2018-06-28T14:20:38.570Z,7.30
2018-06-28T14:23:06.708Z,6.57
2018-06-28T14:25:34.882Z,6.77
2018-06-28T14:28:03.084Z,5.40
2018-06-28T14:30:31.140Z,7.07
2018-06-28T14:32:59.270Z,6.90
2018-06-28T14:35:27.407Z,6.30
2018-06-28T14:37:55.590Z,6.00
2018-06-28T14:40:23.722Z,6.20
2018-06-28T14:42:51.866Z,6.87
2018-06-28T14:45:19.992Z,7.00
2018-06-28T14:47:48.134Z,7.43
2018-06-28T14:50:16.259Z,6.57
2018-06-28T14:52:44.439Z,7.07
2018-06-28T14:55:12.577Z,6.73
2018-06-28T14:57:40.701Z,6.73
2018-06-28T15:00:08.819Z,7.00
2018-06-28T15:02:36.939Z,7.00
2018-06-28T15:05:05.809Z,7.57
2018-06-28T15:07:33.932Z,7.20
2018-06-28T15:10:02.103Z,7.73
2018-06-28T15:12:30.280Z,6.70
2018-06-28T15:14:58.427Z,6.23
2018-06-28T15:17:26.613Z,6.60
2018-06-28T15:19:54.741Z,6.63
2018-06-28T15:22:22.864Z,6.47
2018-06-28T15:24:51.008Z,7.17
2018-06-28T15:27:19.326Z,6.67
2018-06-28T15:29:47.434Z,5.67
2018-06-28T15:32:15.686Z,6.60
2018-06-28T15:34:43.802Z,6.40
2018-06-28T15:37:11.931Z,6.80
2018-06-28T15:39:40.060Z,6.20
2018-06-28T15:42:08.202Z,5.60
2018-06-28T15:44:36.334Z,5.83
2018-06-28T15:47:04.471Z,6.53
2018-06-28T15:49:32.586Z,5.97
2018-06-28T15:52:00.773Z,5.83
2018-06-28T15:54:28.863Z,5.80
2018-06-28T15:56:57.018Z,5.87
2018-06-28T15:59:25.130Z,6.60
2018-06-28T16:01:53.363Z,6.80
2018-06-28T16:04:21.599Z,7.27
2018-06-28T16:06:49.751Z,6.93
2018-06-28T16:09:17.873Z,7.50
2018-06-28T16:11:46.029Z,6.87
2018-06-28T16:14:14.129Z,7.10
2018-06-28T16:16:42.409Z,6.77
2018-06-28T16:19:10.548Z,6.63
2018-06-28T16:21:38.669Z,6.63
2018-06-28T16:24:06.861Z,5.90
2018-06-28T16:26:34.971Z,6.80
2018-06-28T16:29:03.122Z,6.77
2018-06-28T16:31:31.260Z,6.67
2018-06-28T16:33:59.386Z,7.20
2018-06-28T16:36:27.514Z,7.40
2018-06-28T16:38:55.654Z,7.50
2018-06-28T16:41:23.805Z,6.97
2018-06-28T16:43:51.907Z,6.40
2018-06-28T16:46:20.117Z,7.07
2018-06-28T16:48:48.156Z,6.53
2018-06-28T16:51:16.287Z,6.53
2018-06-28T16:53:44.422Z,7.60
2018-06-28T16:56:12.547Z,6.93
2018-06-28T16:58:40.710Z,6.87
2018-06-28T17:01:08.877Z,7.00
2018-06-28T17:03:37.005Z,6.47
2018-06-28T17:06:05.203Z,6.40
2018-06-28T17:08:33.342Z,8.30
2018-06-28T17:11:01.494Z,6.77
2018-06-28T17:13:29.635Z,6.40
2018-06-28T17:15:57.770Z,6.30
2018-06-28T17:18:25.911Z,7.30
2018-06-28T17:20:54.032Z,7.10
2018-06-28T17:23:22.141Z,6.77
2018-06-28T17:25:50.339Z,6.83
2018-06-28T17:28:19.323Z,7.10
2018-06-28T17:30:47.478Z,6.37
2018-06-28T17:33:15.687Z,7.00
2018-06-28T17:35:43.795Z,7.83
2018-06-28T17:38:11.957Z,7.70
2018-06-28T17:40:40.091Z,8.30
2018-06-28T17:43:08.187Z,7.53
2018-06-28T17:45:36.794Z,8.47
2018-06-28T17:48:05.724Z,9.40
2018-06-28T17:50:33.845Z,8.77
2018-06-28T17:53:02.039Z,9.40
2018-06-28T17:55:30.180Z,9.10
2018-06-28T17:57:58.274Z,9.97
2018-06-28T18:00:26.438Z,10.03
2018-06-28T18:02:54.527Z,9.30
2018-06-28T18:05:22.715Z,9.70
2018-06-28T18:07:50.837Z,10.90
2018-06-28T18:10:19.042Z,10.63
2018-06-28T18:12:47.246Z,10.17
2018-06-28T18:15:15.361Z,9.80
2018-06-28T18:17:43.439Z,10.93
2018-06-28T18:20:11.606Z,11.57
2018-06-28T18:22:39.756Z,11.50
2018-06-28T18:25:07.870Z,10.60
2018-06-28T18:27:36.033Z,10.20
2018-06-28T18:30:04.478Z,11.30
2018-06-28T18:32:32.658Z,10.90
2018-06-28T18:35:00.795Z,10.10
2018-06-28T18:37:28.917Z,11.47
2018-06-28T18:39:57.050Z,10.43
2018-06-28T18:42:25.194Z,9.80
2018-06-28T18:44:53.363Z,8.80
2018-06-28T18:47:21.515Z,10.07
2018-06-28T18:49:49.711Z,10.63
2018-06-28T18:52:17.898Z,10.60
2018-06-28T18:54:46.020Z,11.87
2018-06-28T18:57:14.146Z,12.17
2018-06-28T18:59:42.380Z,11.03
2018-06-28T19:02:10.584Z,10.90
2018-06-28T19:04:38.658Z,12.37
2018-06-28T19:07:07.177Z,11.50
2018-06-28T19:09:40.733Z,12.00
2018-06-28T19:12:08.986Z,11.73
2018-06-28T19:14:42.406Z,12.73
2018-06-28T19:17:10.655Z,12.60
2018-06-28T19:19:38.918Z,13.47
2018-06-28T19:22:12.378Z,13.10
2018-06-28T19:24:40.503Z,14.30
2018-06-28T19:27:08.751Z,13.57
2018-06-28T19:29:42.318Z,14.10
2018-06-28T19:32:17.369Z,14.10
2018-06-28T19:34:45.764Z,15.00
2018-06-28T19:37:19.341Z,13.23
2018-06-28T19:39:54.091Z,15.10
2018-06-28T19:42:27.886Z,13.27
2018-06-28T19:44:56.295Z,13.10
2018-06-28T19:47:24.650Z,14.30
2018-06-28T19:49:58.400Z,14.97
2018-06-28T19:52:32.040Z,14.43
2018-06-28T19:55:00.534Z,16.07
2018-06-28T19:57:29.124Z,15.20
2018-06-28T19:59:57.467Z,16.50
2018-06-28T20:02:31.062Z,15.40
2018-06-28T20:04:59.395Z,14.53
2018-06-28T20:07:27.809Z,14.00
2018-06-28T20:09:56.098Z,13.17
2018-06-28T20:12:30.844Z,12.77
2018-06-28T20:15:04.439Z,12.97
2018-06-28T20:17:38.127Z,14.57
2018-06-28T20:20:12.406Z,14.63
2018-06-28T20:22:40.802Z,12.93
2018-06-28T20:25:09.246Z,11.83
2018-06-28T20:27:43.015Z,10.63
2018-06-28T20:30:16.753Z,11.57
2018-06-28T20:32:50.403Z,11.87
2018-06-28T20:35:18.754Z,13.43
2018-06-28T20:37:47.582Z,12.77
2018-06-28T20:40:16.426Z,11.47
2018-06-28T20:42:44.739Z,12.43
2018-06-28T20:45:13.095Z,12.63
2018-06-28T20:47:41.255Z,12.33
2018-06-28T20:50:09.491Z,11.93
2018-06-28T20:52:37.655Z,11.00
2018-06-28T20:55:06.875Z,12.03
2018-06-28T20:57:35.234Z,12.07
2018-06-28T21:00:03.569Z,12.77
2018-06-28T21:02:31.825Z,12.73
2018-06-28T21:05:00.084Z,10.73
2018-06-28T21:07:28.459Z,11.63
2018-06-28T21:09:56.692Z,13.27
2018-06-28T21:12:24.967Z,11.20
2018-06-28T21:14:53.226Z,11.73
2018-06-28T21:17:21.654Z,10.80
2018-06-28T21:19:50.539Z,12.43
2018-06-28T21:22:18.788Z,11.23
2018-06-28T21:24:47.014Z,11.67
2018-06-28T21:27:15.315Z,12.40
2018-06-28T21:29:43.964Z,12.07
2018-06-28T21:32:12.235Z,12.87
2018-06-28T21:34:40.555Z,12.10
2018-06-28T21:37:08.727Z,10.27
2018-06-28T21:39:37.058Z,8.77
2018-06-28T21:42:05.506Z,9.00
2018-06-28T21:44:33.909Z,9.27
2018-06-28T21:47:02.159Z,8.53
2018-06-28T21:49:30.872Z,9.33
2018-06-28T21:51:59.187Z,9.17
2018-06-28T21:54:27.522Z,8.70
2018-06-28T21:56:55.784Z,9.27
2018-06-28T21:59:23.921Z,8.90
2018-06-28T22:01:52.939Z,9.47
2018-06-28T22:04:21.094Z,8.50
2018-06-28T22:06:49.983Z,9.10
2018-06-28T22:09:19.203Z,9.00
2018-06-28T22:11:47.553Z,9.30
2018-06-28T22:14:16.746Z,9.23
2018-06-28T22:16:45.145Z,9.43
2018-06-28T22:19:13.302Z,9.40
2018-06-28T22:21:41.454Z,9.73
2018-06-28T22:24:09.615Z,8.53
2018-06-28T22:26:37.778Z,9.13
2018-06-28T22:29:06.127Z,9.50
2018-06-28T22:31:34.269Z,9.87
2018-06-28T22:34:02.374Z,9.13
2018-06-28T22:36:30.495Z,9.30
2018-06-28T22:38:58.611Z,9.30
2018-06-28T22:41:26.712Z,9.70
2018-06-28T22:43:54.834Z,9.80
2018-06-28T22:46:22.941Z,9.07
2018-06-28T22:48:51.080Z,9.13
2018-06-28T22:51:19.273Z,8.70
2018-06-28T22:53:47.409Z,9.00
2018-06-28T22:56:15.542Z,9.30
2018-06-28T22:58:43.664Z,9.00
2018-06-28T23:01:11.777Z,9.40
2018-06-28T23:03:39.917Z,8.47
2018-06-28T23:06:08.036Z,9.13
2018-06-28T23:08:36.128Z,8.37
2018-06-28T23:11:04.251Z,8.13
2018-06-28T23:13:32.362Z,8.60
2018-06-28T23:16:00.472Z,8.80
2018-06-28T23:18:28.583Z,8.80
2018-06-28T23:20:56.726Z,8.83
2018-06-28T23:23:24.866Z,8.50
2018-06-28T23:25:52.994Z,8.57
2018-06-28T23:28:21.098Z,8.87
2018-06-28T23:30:49.218Z,9.30
2018-06-28T23:33:17.315Z,8.97
2018-06-28T23:35:45.429Z,8.33
2018-06-28T23:38:13.534Z,9.40
2018-06-28T23:40:41.722Z,8.40
2018-06-28T23:43:09.820Z,8.47
2018-06-28T23:45:37.901Z,7.80
2018-06-28T23:48:06.032Z,8.90
2018-06-28T23:50:34.134Z,7.83
2018-06-28T23:53:02.277Z,9.40
2018-06-28T23:55:30.466Z,8.33
2018-06-28T23:57:58.770Z,9.27
